Meridian Naval Air Station
KNMM : now visible

Airfield :











YOU CAN JOIN US ON...

 
LOGIN :

Register | Disclaimer

   EN    FR    IT 

 









Legend :    VFR   Marginal VFR   IFR   Intensive IFR   Very Intensive IFR
Visi :
Ceiling :
>= 8 km
>= 3000ft
5 to 8 km
1000 to 3000 ft
1500m to 5 km
500 to 1000 ft
800 to 1500m
200 to 500 ft
< 800m
< 200 ft
Symbols :   Thunderstorms  Fog  Heavy snow  Heavy precipitations  Wind > 20 kt






- Airport Elevation : 316 ft


KNMM - Meridian Naval Air Station

CURRENT METAR :
  • 270156Z 33004KT 10SM FEW050 FEW150 BKN250 27/24 A2995 RMK AO2 SLP149 T02670244

EXPIRED METARs :
  • 270056Z 00000KT 10SM FEW050 FEW150 BKN250 26/25 A2993 RMK AO2 SLP142 T02610250
  • 262356Z 20003KT 10SM FEW050 FEW150 BKN250 27/24 A2993 RMK AO2 SLP140 OCNL LTGICCC DSNT NW CB DSNT NW T2 SET T02720244 10344 20272 56004

TAF TAF KNMM
Valid from the 26 at 23:00 until the 27 at 23:00 UTC


2623/2723 17006KT 9999 VCTS SCT030CB SCT065 BKN150 QNH2989INS
TEMPO 2623/2701 VRB12G22KT 4800 -TSRA SCT035CB BKN050 BKN100 BKN250
FM270100 VRB05KT 9999 SCT035 SCT100 BKN250 QNH2993INS
TEMPO 2709/2714 4800 BR SCT007
FM271800 23006KT 9999 VCTS SCT035CB BKN060 BKN150 QNH2990INS
TEMPO 2719/2723 VRB15G25KT 1600 +TSRA BR BKN030CB BKN060 OVC120 AUTOMATED SENSOR METWATCH 2705 TIL 2711 T24/2710Z T33/2720Z FN20067
KZME FIR / North America



MET'MAP, your aeronautical weather chart ! - Copyright ORBIFLY December 2007 - Disclaimer

ORBIFLY MET'MAP TEAM :

Programming & Development : Alexandra Zaïnal
Concept & original design : Baudouin d'Aumeries
Assistance for programming : Marc-Olivier Méhu
Technical & hardware support : Manuel Goepfert

Contact : metmap@orbifly.com




SOURCES & CREDITS :

   NOAA       Earth
Advisory